sensor_id;sensor_type;location;lat;lon;timestamp;P1;durP1;ratioP1;P2;durP2;ratioP2
74749;SDS011;63269;53.330;-6.288;2023-08-21T00:00:18;3.60;;;1.50;;
74749;SDS011;63269;53.330;-6.288;2023-08-21T00:02:43;3.78;;;1.33;;
74749;SDS011;63269;53.330;-6.288;2023-08-21T00:05:09;5.93;;;1.75;;
74749;SDS011;63269;53.330;-6.288;2023-08-21T00:07:34;4.30;;;1.30;;
74749;SDS011;63269;53.330;-6.288;2023-08-21T00:09:59;5.00;;;1.63;;
74749;SDS011;63269;53.330;-6.288;2023-08-21T00:12:25;4.40;;;1.35;;
74749;SDS011;63269;53.330;-6.288;2023-08-21T00:14:50;5.55;;;1.52;;
74749;SDS011;63269;53.330;-6.288;2023-08-21T00:17:16;3.80;;;1.15;;
74749;SDS011;63269;53.330;-6.288;2023-08-21T00:19:41;4.28;;;1.10;;
74749;SDS011;63269;53.330;-6.288;2023-08-21T00:22:06;5.20;;;1.55;;
74749;SDS011;63269;53.330;-6.288;2023-08-21T00:24:32;3.92;;;1.35;;
74749;SDS011;63269;53.330;-6.288;2023-08-21T00:26:58;3.83;;;1.60;;
74749;SDS011;63269;53.330;-6.288;2023-08-21T00:29:23;3.67;;;1.10;;
74749;SDS011;63269;53.330;-6.288;2023-08-21T00:31:48;5.85;;;2.65;;
74749;SDS011;63269;53.330;-6.288;2023-08-21T00:34:14;4.57;;;1.45;;
74749;SDS011;63269;53.330;-6.288;2023-08-21T00:36:39;2.83;;;1.30;;
74749;SDS011;63269;53.330;-6.288;2023-08-21T00:39:05;5.47;;;1.90;;
74749;SDS011;63269;53.330;-6.288;2023-08-21T00:41:31;3.35;;;1.30;;
74749;SDS011;63269;53.330;-6.288;2023-08-21T00:43:59;5.75;;;1.48;;
74749;SDS011;63269;53.330;-6.288;2023-08-21T00:46:24;3.38;;;1.55;;
74749;SDS011;63269;53.330;-6.288;2023-08-21T00:48:50;3.08;;;1.00;;
74749;SDS011;63269;53.330;-6.288;2023-08-21T00:51:15;2.40;;;1.30;;
74749;SDS011;63269;53.330;-6.288;2023-08-21T00:53:42;3.80;;;1.05;;
74749;SDS011;63269;53.330;-6.288;2023-08-21T00:56:08;5.53;;;1.52;;
74749;SDS011;63269;53.330;-6.288;2023-08-21T00:58:34;3.13;;;1.50;;
74749;SDS011;63269;53.330;-6.288;2023-08-21T01:01:00;3.40;;;1.48;;
74749;SDS011;63269;53.330;-6.288;2023-08-21T01:03:25;3.08;;;1.38;;
74749;SDS011;63269;53.330;-6.288;2023-08-21T01:05:51;4.20;;;1.40;;
74749;SDS011;63269;53.330;-6.288;2023-08-21T01:15:53;2.67;;;1.30;;
74749;SDS011;63269;53.330;-6.288;2023-08-21T01:18:20;3.85;;;1.30;;
74749;SDS011;63269;53.330;-6.288;2023-08-21T01:20:47;3.92;;;1.40;;
74749;SDS011;63269;53.330;-6.288;2023-08-21T01:26:01;3.47;;;1.20;;
74749;SDS011;63269;53.330;-6.288;2023-08-21T01:28:26;2.78;;;1.20;;
74749;SDS011;63269;53.330;-6.288;2023-08-21T01:31:14;4.07;;;1.27;;
74749;SDS011;63269;53.330;-6.288;2023-08-21T01:33:44;3.38;;;1.10;;
74749;SDS011;63269;53.330;-6.288;2023-08-21T01:36:13;3.15;;;1.45;;
74749;SDS011;63269;53.330;-6.288;2023-08-21T01:38:39;3.38;;;1.52;;
74749;SDS011;63269;53.330;-6.288;2023-08-21T01:41:05;3.63;;;1.17;;
74749;SDS011;63269;53.330;-6.288;2023-08-21T01:43:31;4.68;;;1.27;;
74749;SDS011;63269;53.330;-6.288;2023-08-21T01:45:56;2.95;;;1.30;;
74749;SDS011;63269;53.330;-6.288;2023-08-21T01:48:22;2.92;;;1.27;;
74749;SDS011;63269;53.330;-6.288;2023-08-21T01:50:47;3.13;;;1.10;;
74749;SDS011;63269;53.330;-6.288;2023-08-21T01:53:13;3.22;;;1.20;;
74749;SDS011;63269;53.330;-6.288;2023-08-21T01:55:38;2.97;;;1.67;;
74749;SDS011;63269;53.330;-6.288;2023-08-21T01:58:04;2.72;;;1.27;;
74749;SDS011;63269;53.330;-6.288;2023-08-21T02:00:29;3.22;;;1.55;;
74749;SDS011;63269;53.330;-6.288;2023-08-21T02:02:54;3.97;;;1.40;;
74749;SDS011;63269;53.330;-6.288;2023-08-21T02:05:20;2.38;;;1.02;;
74749;SDS011;63269;53.330;-6.288;2023-08-21T02:07:45;3.40;;;1.10;;
74749;SDS011;63269;53.330;-6.288;2023-08-21T02:10:11;3.75;;;1.10;;
74749;SDS011;63269;53.330;-6.288;2023-08-21T02:12:36;3.92;;;1.45;;
74749;SDS011;63269;53.330;-6.288;2023-08-21T02:15:02;3.83;;;1.27;;
74749;SDS011;63269;53.330;-6.288;2023-08-21T02:17:27;3.33;;;1.13;;
74749;SDS011;63269;53.330;-6.288;2023-08-21T02:19:53;2.53;;;1.13;;
74749;SDS011;63269;53.330;-6.288;2023-08-21T02:22:18;3.75;;;1.05;;
74749;SDS011;63269;53.330;-6.288;2023-08-21T02:24:43;3.10;;;0.88;;
74749;SDS011;63269;53.330;-6.288;2023-08-21T02:27:09;2.30;;;0.90;;
74749;SDS011;63269;53.330;-6.288;2023-08-21T02:29:34;4.30;;;1.00;;
74749;SDS011;63269;53.330;-6.288;2023-08-21T02:32:00;3.13;;;1.13;;
74749;SDS011;63269;53.330;-6.288;2023-08-21T02:34:25;2.95;;;1.10;;
74749;SDS011;63269;53.330;-6.288;2023-08-21T02:36:52;4.45;;;1.40;;
74749;SDS011;63269;53.330;-6.288;2023-08-21T02:39:17;2.67;;;1.40;;
74749;SDS011;63269;53.330;-6.288;2023-08-21T02:41:42;3.13;;;1.10;;
74749;SDS011;63269;53.330;-6.288;2023-08-21T02:44:08;2.35;;;1.00;;
74749;SDS011;63269;53.330;-6.288;2023-08-21T02:46:33;2.70;;;1.10;;
74749;SDS011;63269;53.330;-6.288;2023-08-21T02:49:00;2.80;;;1.00;;
74749;SDS011;63269;53.330;-6.288;2023-08-21T02:51:25;2.38;;;1.13;;
74749;SDS011;63269;53.330;-6.288;2023-08-21T02:53:51;2.65;;;1.00;;
74749;SDS011;63269;53.330;-6.288;2023-08-21T02:56:16;4.40;;;1.33;;
74749;SDS011;63269;53.330;-6.288;2023-08-21T02:58:41;3.63;;;1.30;;
74749;SDS011;63269;53.330;-6.288;2023-08-21T03:01:07;2.85;;;1.15;;
74749;SDS011;63269;53.330;-6.288;2023-08-21T03:03:33;2.90;;;0.98;;
74749;SDS011;63269;53.330;-6.288;2023-08-21T03:06:00;2.78;;;1.05;;
74749;SDS011;63269;53.330;-6.288;2023-08-21T03:08:26;2.80;;;1.20;;
74749;SDS011;63269;53.330;-6.288;2023-08-21T03:10:51;1.75;;;0.88;;
74749;SDS011;63269;53.330;-6.288;2023-08-21T03:13:16;2.90;;;1.08;;
74749;SDS011;63269;53.330;-6.288;2023-08-21T03:15:42;4.03;;;1.13;;
74749;SDS011;63269;53.330;-6.288;2023-08-21T03:18:08;2.15;;;0.80;;
74749;SDS011;63269;53.330;-6.288;2023-08-21T03:20:33;4.45;;;1.00;;
74749;SDS011;63269;53.330;-6.288;2023-08-21T03:22:59;3.08;;;1.38;;
74749;SDS011;63269;53.330;-6.288;2023-08-21T03:25:25;2.92;;;1.10;;
74749;SDS011;63269;53.330;-6.288;2023-08-21T03:27:50;3.00;;;0.90;;
74749;SDS011;63269;53.330;-6.288;2023-08-21T03:30:15;2.30;;;0.88;;
74749;SDS011;63269;53.330;-6.288;2023-08-21T03:32:41;2.97;;;1.10;;
74749;SDS011;63269;53.330;-6.288;2023-08-21T03:35:06;3.08;;;1.02;;
74749;SDS011;63269;53.330;-6.288;2023-08-21T03:37:32;1.92;;;1.00;;
74749;SDS011;63269;53.330;-6.288;2023-08-21T03:39:57;2.17;;;0.73;;
74749;SDS011;63269;53.330;-6.288;2023-08-21T03:42:23;2.78;;;0.95;;
74749;SDS011;63269;53.330;-6.288;2023-08-21T03:44:48;1.60;;;0.90;;
74749;SDS011;63269;53.330;-6.288;2023-08-21T03:47:15;2.45;;;0.85;;
74749;SDS011;63269;53.330;-6.288;2023-08-21T03:49:41;2.90;;;0.90;;
74749;SDS011;63269;53.330;-6.288;2023-08-21T03:52:07;3.05;;;1.05;;
74749;SDS011;63269;53.330;-6.288;2023-08-21T03:54:32;2.30;;;0.77;;
74749;SDS011;63269;53.330;-6.288;2023-08-21T03:56:57;2.28;;;1.15;;
74749;SDS011;63269;53.330;-6.288;2023-08-21T03:59:23;3.55;;;1.13;;
74749;SDS011;63269;53.330;-6.288;2023-08-21T04:01:52;1.27;;;0.73;;
74749;SDS011;63269;53.330;-6.288;2023-08-21T04:04:17;1.45;;;0.70;;
74749;SDS011;63269;53.330;-6.288;2023-08-21T04:06:43;1.80;;;1.13;;
74749;SDS011;63269;53.330;-6.288;2023-08-21T04:09:08;4.32;;;1.42;;
74749;SDS011;63269;53.330;-6.288;2023-08-21T04:11:34;1.55;;;0.80;;
74749;SDS011;63269;53.330;-6.288;2023-08-21T04:14:00;2.58;;;0.93;;
74749;SDS011;63269;53.330;-6.288;2023-08-21T04:16:26;1.73;;;0.70;;
74749;SDS011;63269;53.330;-6.288;2023-08-21T04:18:53;2.83;;;1.35;;
74749;SDS011;63269;53.330;-6.288;2023-08-21T04:21:18;1.55;;;0.80;;
74749;SDS011;63269;53.330;-6.288;2023-08-21T04:23:44;2.95;;;1.27;;
74749;SDS011;63269;53.330;-6.288;2023-08-21T04:26:10;1.38;;;0.73;;
74749;SDS011;63269;53.330;-6.288;2023-08-21T04:28:37;1.50;;;0.70;;
74749;SDS011;63269;53.330;-6.288;2023-08-21T04:31:06;1.67;;;0.65;;
74749;SDS011;63269;53.330;-6.288;2023-08-21T04:33:32;1.85;;;0.93;;
74749;SDS011;63269;53.330;-6.288;2023-08-21T04:35:58;2.50;;;0.93;;
74749;SDS011;63269;53.330;-6.288;2023-08-21T04:38:24;2.15;;;0.88;;
74749;SDS011;63269;53.330;-6.288;2023-08-21T04:40:49;2.15;;;0.80;;
74749;SDS011;63269;53.330;-6.288;2023-08-21T04:43:15;2.50;;;0.80;;
74749;SDS011;63269;53.330;-6.288;2023-08-21T04:45:47;1.58;;;0.65;;
74749;SDS011;63269;53.330;-6.288;2023-08-21T04:48:14;1.63;;;0.80;;
74749;SDS011;63269;53.330;-6.288;2023-08-21T04:50:39;1.38;;;0.70;;
74749;SDS011;63269;53.330;-6.288;2023-08-21T04:53:05;2.08;;;0.70;;
74749;SDS011;63269;53.330;-6.288;2023-08-21T04:55:31;1.40;;;0.80;;
74749;SDS011;63269;53.330;-6.288;2023-08-21T04:57:56;2.55;;;0.60;;
74749;SDS011;63269;53.330;-6.288;2023-08-21T05:00:22;1.80;;;0.65;;
74749;SDS011;63269;53.330;-6.288;2023-08-21T05:02:47;1.48;;;0.60;;
74749;SDS011;63269;53.330;-6.288;2023-08-21T05:05:12;1.85;;;0.80;;
74749;SDS011;63269;53.330;-6.288;2023-08-21T05:07:38;2.75;;;0.75;;
74749;SDS011;63269;53.330;-6.288;2023-08-21T05:10:03;1.45;;;0.70;;
74749;SDS011;63269;53.330;-6.288;2023-08-21T05:12:29;1.85;;;0.95;;
74749;SDS011;63269;53.330;-6.288;2023-08-21T05:14:55;1.40;;;0.73;;
74749;SDS011;63269;53.330;-6.288;2023-08-21T05:17:20;1.45;;;0.63;;
74749;SDS011;63269;53.330;-6.288;2023-08-21T05:19:46;1.23;;;0.73;;
74749;SDS011;63269;53.330;-6.288;2023-08-21T05:22:11;1.20;;;0.52;;
74749;SDS011;63269;53.330;-6.288;2023-08-21T05:24:37;2.53;;;0.80;;
74749;SDS011;63269;53.330;-6.288;2023-08-21T05:27:02;1.40;;;0.55;;
74749;SDS011;63269;53.330;-6.288;2023-08-21T05:29:29;1.35;;;0.90;;
74749;SDS011;63269;53.330;-6.288;2023-08-21T05:31:55;1.38;;;0.52;;
74749;SDS011;63269;53.330;-6.288;2023-08-21T05:34:20;1.15;;;0.70;;
74749;SDS011;63269;53.330;-6.288;2023-08-21T05:36:45;1.55;;;0.60;;
74749;SDS011;63269;53.330;-6.288;2023-08-21T05:39:11;1.45;;;0.60;;
74749;SDS011;63269;53.330;-6.288;2023-08-21T05:41:36;1.30;;;0.60;;
74749;SDS011;63269;53.330;-6.288;2023-08-21T05:44:02;2.30;;;0.70;;
74749;SDS011;63269;53.330;-6.288;2023-08-21T05:46:27;1.90;;;0.63;;
74749;SDS011;63269;53.330;-6.288;2023-08-21T05:48:53;1.77;;;0.80;;
74749;SDS011;63269;53.330;-6.288;2023-08-21T05:51:18;1.25;;;0.60;;
74749;SDS011;63269;53.330;-6.288;2023-08-21T05:53:44;1.92;;;0.70;;
74749;SDS011;63269;53.330;-6.288;2023-08-21T05:56:09;0.60;;;0.47;;
74749;SDS011;63269;53.330;-6.288;2023-08-21T05:58:34;1.10;;;0.52;;
74749;SDS011;63269;53.330;-6.288;2023-08-21T06:01:00;1.55;;;0.73;;
74749;SDS011;63269;53.330;-6.288;2023-08-21T06:03:25;1.25;;;0.57;;
74749;SDS011;63269;53.330;-6.288;2023-08-21T06:05:51;1.58;;;0.57;;
74749;SDS011;63269;53.330;-6.288;2023-08-21T06:08:16;1.33;;;0.60;;
74749;SDS011;63269;53.330;-6.288;2023-08-21T06:10:43;1.75;;;0.65;;
74749;SDS011;63269;53.330;-6.288;2023-08-21T06:13:08;3.15;;;0.75;;
74749;SDS011;63269;53.330;-6.288;2023-08-21T06:15:34;1.52;;;0.60;;
74749;SDS011;63269;53.330;-6.288;2023-08-21T06:17:59;2.40;;;0.70;;
74749;SDS011;63269;53.330;-6.288;2023-08-21T06:20:25;0.73;;;0.55;;
74749;SDS011;63269;53.330;-6.288;2023-08-21T06:22:51;1.50;;;0.73;;
74749;SDS011;63269;53.330;-6.288;2023-08-21T06:25:16;1.80;;;0.80;;
74749;SDS011;63269;53.330;-6.288;2023-08-21T06:27:44;1.77;;;0.70;;
74749;SDS011;63269;53.330;-6.288;2023-08-21T06:30:09;2.95;;;0.98;;
74749;SDS011;63269;53.330;-6.288;2023-08-21T06:32:35;1.85;;;0.70;;
74749;SDS011;63269;53.330;-6.288;2023-08-21T06:35:00;2.85;;;0.77;;
74749;SDS011;63269;53.330;-6.288;2023-08-21T06:37:26;1.33;;;0.60;;
74749;SDS011;63269;53.330;-6.288;2023-08-21T06:39:51;3.05;;;0.95;;
74749;SDS011;63269;53.330;-6.288;2023-08-21T06:42:17;1.80;;;0.60;;
74749;SDS011;63269;53.330;-6.288;2023-08-21T06:44:42;1.65;;;0.65;;
74749;SDS011;63269;53.330;-6.288;2023-08-21T06:47:08;1.45;;;0.80;;
74749;SDS011;63269;53.330;-6.288;2023-08-21T06:49:33;3.80;;;0.80;;
74749;SDS011;63269;53.330;-6.288;2023-08-21T06:51:59;2.70;;;0.95;;
74749;SDS011;63269;53.330;-6.288;2023-08-21T06:54:24;2.05;;;0.70;;
74749;SDS011;63269;53.330;-6.288;2023-08-21T06:56:50;1.23;;;0.70;;
74749;SDS011;63269;53.330;-6.288;2023-08-21T06:59:15;1.17;;;0.70;;
74749;SDS011;63269;53.330;-6.288;2023-08-21T07:01:41;1.40;;;0.75;;
74749;SDS011;63269;53.330;-6.288;2023-08-21T07:04:06;1.48;;;0.80;;
74749;SDS011;63269;53.330;-6.288;2023-08-21T07:06:32;1.63;;;0.80;;
74749;SDS011;63269;53.330;-6.288;2023-08-21T07:08:57;1.60;;;0.60;;
74749;SDS011;63269;53.330;-6.288;2023-08-21T07:11:23;1.35;;;0.80;;
74749;SDS011;63269;53.330;-6.288;2023-08-21T07:13:48;1.42;;;0.68;;
74749;SDS011;63269;53.330;-6.288;2023-08-21T07:16:14;1.15;;;0.60;;
74749;SDS011;63269;53.330;-6.288;2023-08-21T07:18:39;1.88;;;0.70;;
74749;SDS011;63269;53.330;-6.288;2023-08-21T07:21:05;1.48;;;0.70;;
74749;SDS011;63269;53.330;-6.288;2023-08-21T07:23:31;2.33;;;0.93;;
74749;SDS011;63269;53.330;-6.288;2023-08-21T07:25:57;1.92;;;0.63;;
74749;SDS011;63269;53.330;-6.288;2023-08-21T07:28:23;2.45;;;0.68;;
74749;SDS011;63269;53.330;-6.288;2023-08-21T07:30:54;1.77;;;0.85;;
74749;SDS011;63269;53.330;-6.288;2023-08-21T07:33:20;1.85;;;0.60;;
74749;SDS011;63269;53.330;-6.288;2023-08-21T07:35:45;3.08;;;1.00;;
74749;SDS011;63269;53.330;-6.288;2023-08-21T07:38:11;1.42;;;0.70;;
74749;SDS011;63269;53.330;-6.288;2023-08-21T07:40:36;1.40;;;0.52;;
74749;SDS011;63269;53.330;-6.288;2023-08-21T07:43:02;1.67;;;0.88;;
74749;SDS011;63269;53.330;-6.288;2023-08-21T07:45:27;2.17;;;0.80;;
74749;SDS011;63269;53.330;-6.288;2023-08-21T07:47:53;2.00;;;0.77;;
74749;SDS011;63269;53.330;-6.288;2023-08-21T07:50:18;1.45;;;0.65;;
74749;SDS011;63269;53.330;-6.288;2023-08-21T07:52:44;2.78;;;0.70;;
74749;SDS011;63269;53.330;-6.288;2023-08-21T07:55:09;2.00;;;0.80;;
74749;SDS011;63269;53.330;-6.288;2023-08-21T07:57:35;1.85;;;0.70;;
74749;SDS011;63269;53.330;-6.288;2023-08-21T08:00:00;2.17;;;0.70;;
74749;SDS011;63269;53.330;-6.288;2023-08-21T08:02:25;1.52;;;0.75;;
74749;SDS011;63269;53.330;-6.288;2023-08-21T08:04:51;1.90;;;0.85;;
74749;SDS011;63269;53.330;-6.288;2023-08-21T08:07:16;2.53;;;1.00;;
74749;SDS011;63269;53.330;-6.288;2023-08-21T08:09:42;2.70;;;1.73;;
74749;SDS011;63269;53.330;-6.288;2023-08-21T08:12:07;3.70;;;0.90;;
74749;SDS011;63269;53.330;-6.288;2023-08-21T08:14:34;2.95;;;0.90;;
74749;SDS011;63269;53.330;-6.288;2023-08-21T08:17:00;3.28;;;1.10;;
74749;SDS011;63269;53.330;-6.288;2023-08-21T08:19:25;2.40;;;0.77;;
74749;SDS011;63269;53.330;-6.288;2023-08-21T08:21:51;5.78;;;1.45;;
74749;SDS011;63269;53.330;-6.288;2023-08-21T08:24:16;1.48;;;0.80;;
74749;SDS011;63269;53.330;-6.288;2023-08-21T08:26:41;1.65;;;0.88;;
74749;SDS011;63269;53.330;-6.288;2023-08-21T08:29:08;2.78;;;1.10;;
74749;SDS011;63269;53.330;-6.288;2023-08-21T08:31:34;2.63;;;0.93;;
74749;SDS011;63269;53.330;-6.288;2023-08-21T08:33:59;2.50;;;0.93;;
74749;SDS011;63269;53.330;-6.288;2023-08-21T08:36:25;4.47;;;0.90;;
74749;SDS011;63269;53.330;-6.288;2023-08-21T08:38:50;1.95;;;1.02;;
74749;SDS011;63269;53.330;-6.288;2023-08-21T08:43:55;4.60;;;0.93;;
74749;SDS011;63269;53.330;-6.288;2023-08-21T08:46:22;5.00;;;1.27;;
74749;SDS011;63269;53.330;-6.288;2023-08-21T08:48:49;2.75;;;1.15;;
74749;SDS011;63269;53.330;-6.288;2023-08-21T08:51:14;3.33;;;1.00;;
74749;SDS011;63269;53.330;-6.288;2023-08-21T08:53:40;2.80;;;1.00;;
74749;SDS011;63269;53.330;-6.288;2023-08-21T08:56:07;2.85;;;1.48;;
74749;SDS011;63269;53.330;-6.288;2023-08-21T08:58:33;2.92;;;1.10;;
74749;SDS011;63269;53.330;-6.288;2023-08-21T09:00:59;9.98;;;1.55;;
74749;SDS011;63269;53.330;-6.288;2023-08-21T09:03:24;2.50;;;1.25;;
74749;SDS011;63269;53.330;-6.288;2023-08-21T09:05:50;4.25;;;1.00;;
74749;SDS011;63269;53.330;-6.288;2023-08-21T09:08:15;3.85;;;1.00;;
74749;SDS011;63269;53.330;-6.288;2023-08-21T09:10:41;4.63;;;1.10;;
74749;SDS011;63269;53.330;-6.288;2023-08-21T09:13:08;3.55;;;1.00;;
74749;SDS011;63269;53.330;-6.288;2023-08-21T09:15:38;6.20;;;1.63;;
74749;SDS011;63269;53.330;-6.288;2023-08-21T09:18:03;5.20;;;1.20;;
74749;SDS011;63269;53.330;-6.288;2023-08-21T09:20:38;3.70;;;1.13;;
74749;SDS011;63269;53.330;-6.288;2023-08-21T09:23:04;6.47;;;1.88;;
74749;SDS011;63269;53.330;-6.288;2023-08-21T09:25:34;5.22;;;1.73;;
74749;SDS011;63269;53.330;-6.288;2023-08-21T09:28:03;3.20;;;1.17;;
74749;SDS011;63269;53.330;-6.288;2023-08-21T09:30:34;4.07;;;1.20;;
74749;SDS011;63269;53.330;-6.288;2023-08-21T09:33:21;5.15;;;1.10;;
74749;SDS011;63269;53.330;-6.288;2023-08-21T09:35:48;3.13;;;1.00;;
74749;SDS011;63269;53.330;-6.288;2023-08-21T09:38:16;4.03;;;1.00;;
74749;SDS011;63269;53.330;-6.288;2023-08-21T09:40:41;3.40;;;1.20;;
74749;SDS011;63269;53.330;-6.288;2023-08-21T09:43:08;3.30;;;1.40;;
74749;SDS011;63269;53.330;-6.288;2023-08-21T09:45:36;2.65;;;0.95;;
74749;SDS011;63269;53.330;-6.288;2023-08-21T09:48:02;5.68;;;1.15;;
74749;SDS011;63269;53.330;-6.288;2023-08-21T09:50:29;2.40;;;0.95;;
74749;SDS011;63269;53.330;-6.288;2023-08-21T09:52:54;6.30;;;1.80;;
74749;SDS011;63269;53.330;-6.288;2023-08-21T09:55:22;7.53;;;1.50;;
74749;SDS011;63269;53.330;-6.288;2023-08-21T09:57:47;4.95;;;1.17;;
74749;SDS011;63269;53.330;-6.288;2023-08-21T10:00:14;3.15;;;1.20;;
74749;SDS011;63269;53.330;-6.288;2023-08-21T10:02:51;5.05;;;1.63;;
74749;SDS011;63269;53.330;-6.288;2023-08-21T10:05:17;3.63;;;1.20;;
74749;SDS011;63269;53.330;-6.288;2023-08-21T10:07:43;4.93;;;1.20;;
74749;SDS011;63269;53.330;-6.288;2023-08-21T10:10:10;3.95;;;1.38;;
74749;SDS011;63269;53.330;-6.288;2023-08-21T10:12:37;4.40;;;1.40;;
74749;SDS011;63269;53.330;-6.288;2023-08-21T10:15:03;4.90;;;1.27;;
74749;SDS011;63269;53.330;-6.288;2023-08-21T10:17:29;2.55;;;0.98;;
74749;SDS011;63269;53.330;-6.288;2023-08-21T10:19:58;5.93;;;1.55;;
74749;SDS011;63269;53.330;-6.288;2023-08-21T10:22:38;9.90;;;1.35;;
74749;SDS011;63269;53.330;-6.288;2023-08-21T10:25:04;4.30;;;1.30;;
74749;SDS011;63269;53.330;-6.288;2023-08-21T10:27:48;3.55;;;1.20;;
74749;SDS011;63269;53.330;-6.288;2023-08-21T10:30:15;3.53;;;1.33;;
74749;SDS011;63269;53.330;-6.288;2023-08-21T10:32:46;4.85;;;1.33;;
74749;SDS011;63269;53.330;-6.288;2023-08-21T10:35:15;1.85;;;1.23;;
74749;SDS011;63269;53.330;-6.288;2023-08-21T10:41:03;3.63;;;1.63;;
74749;SDS011;63269;53.330;-6.288;2023-08-21T10:43:36;1.52;;;0.90;;
74749;SDS011;63269;53.330;-6.288;2023-08-21T10:46:06;2.25;;;1.23;;
74749;SDS011;63269;53.330;-6.288;2023-08-21T10:48:32;2.75;;;1.25;;
74749;SDS011;63269;53.330;-6.288;2023-08-21T10:51:02;2.58;;;1.20;;
74749;SDS011;63269;53.330;-6.288;2023-08-21T10:53:29;3.13;;;1.20;;
74749;SDS011;63269;53.330;-6.288;2023-08-21T10:55:55;3.10;;;1.20;;
74749;SDS011;63269;53.330;-6.288;2023-08-21T10:58:21;3.72;;;1.73;;
74749;SDS011;63269;53.330;-6.288;2023-08-21T11:00:47;2.83;;;1.65;;
74749;SDS011;63269;53.330;-6.288;2023-08-21T11:03:21;3.83;;;1.20;;
74749;SDS011;63269;53.330;-6.288;2023-08-21T11:05:59;2.83;;;1.30;;
74749;SDS011;63269;53.330;-6.288;2023-08-21T11:08:28;2.50;;;1.00;;
74749;SDS011;63269;53.330;-6.288;2023-08-21T11:10:54;4.72;;;1.48;;
74749;SDS011;63269;53.330;-6.288;2023-08-21T11:13:22;6.18;;;1.60;;
74749;SDS011;63269;53.330;-6.288;2023-08-21T11:15:48;4.10;;;1.30;;
74749;SDS011;63269;53.330;-6.288;2023-08-21T11:18:14;3.67;;;1.60;;
74749;SDS011;63269;53.330;-6.288;2023-08-21T11:20:39;2.88;;;1.08;;
74749;SDS011;63269;53.330;-6.288;2023-08-21T11:23:05;3.20;;;1.30;;
74749;SDS011;63269;53.330;-6.288;2023-08-21T11:25:34;4.57;;;1.90;;
74749;SDS011;63269;53.330;-6.288;2023-08-21T11:28:04;3.67;;;1.45;;
74749;SDS011;63269;53.330;-6.288;2023-08-21T11:30:30;3.60;;;1.88;;
74749;SDS011;63269;53.330;-6.288;2023-08-21T11:33:04;2.33;;;1.23;;
74749;SDS011;63269;53.330;-6.288;2023-08-21T11:35:34;4.50;;;1.17;;
74749;SDS011;63269;53.330;-6.288;2023-08-21T11:38:00;5.22;;;1.10;;
74749;SDS011;63269;53.330;-6.288;2023-08-21T11:40:25;3.03;;;1.50;;
74749;SDS011;63269;53.330;-6.288;2023-08-21T11:42:51;5.28;;;1.85;;
74749;SDS011;63269;53.330;-6.288;2023-08-21T11:45:17;3.72;;;1.20;;
74749;SDS011;63269;53.330;-6.288;2023-08-21T11:47:46;4.13;;;1.48;;
74749;SDS011;63269;53.330;-6.288;2023-08-21T11:50:11;5.20;;;1.40;;
74749;SDS011;63269;53.330;-6.288;2023-08-21T11:52:40;3.60;;;2.00;;
74749;SDS011;63269;53.330;-6.288;2023-08-21T11:55:08;7.82;;;1.50;;
74749;SDS011;63269;53.330;-6.288;2023-08-21T11:57:35;4.68;;;1.95;;
74749;SDS011;63269;53.330;-6.288;2023-08-21T12:00:11;5.85;;;1.67;;
74749;SDS011;63269;53.330;-6.288;2023-08-21T12:02:37;8.38;;;1.85;;
74749;SDS011;63269;53.330;-6.288;2023-08-21T12:05:06;5.28;;;1.63;;
74749;SDS011;63269;53.330;-6.288;2023-08-21T12:07:38;8.93;;;2.45;;
74749;SDS011;63269;53.330;-6.288;2023-08-21T12:10:03;9.32;;;1.70;;
74749;SDS011;63269;53.330;-6.288;2023-08-21T12:12:29;5.28;;;1.63;;
74749;SDS011;63269;53.330;-6.288;2023-08-21T12:14:55;8.35;;;2.25;;
74749;SDS011;63269;53.330;-6.288;2023-08-21T12:17:20;6.70;;;2.38;;
74749;SDS011;63269;53.330;-6.288;2023-08-21T12:19:46;5.45;;;1.50;;
74749;SDS011;63269;53.330;-6.288;2023-08-21T12:22:11;4.15;;;1.48;;
74749;SDS011;63269;53.330;-6.288;2023-08-21T12:24:37;4.03;;;1.52;;
74749;SDS011;63269;53.330;-6.288;2023-08-21T12:27:03;7.88;;;2.25;;
74749;SDS011;63269;53.330;-6.288;2023-08-21T12:29:29;2.90;;;1.60;;
74749;SDS011;63269;53.330;-6.288;2023-08-21T12:31:54;7.80;;;2.05;;
74749;SDS011;63269;53.330;-6.288;2023-08-21T12:34:20;5.28;;;1.88;;
74749;SDS011;63269;53.330;-6.288;2023-08-21T12:36:46;4.28;;;1.80;;
74749;SDS011;63269;53.330;-6.288;2023-08-21T12:39:11;5.05;;;1.75;;
74749;SDS011;63269;53.330;-6.288;2023-08-21T12:41:37;6.60;;;1.52;;
74749;SDS011;63269;53.330;-6.288;2023-08-21T12:44:02;6.85;;;1.85;;
74749;SDS011;63269;53.330;-6.288;2023-08-21T12:46:28;4.68;;;2.25;;
74749;SDS011;63269;53.330;-6.288;2023-08-21T12:48:58;5.97;;;1.95;;
74749;SDS011;63269;53.330;-6.288;2023-08-21T12:51:26;6.13;;;1.50;;
74749;SDS011;63269;53.330;-6.288;2023-08-21T12:53:52;6.55;;;2.20;;
74749;SDS011;63269;53.330;-6.288;2023-08-21T12:56:17;7.05;;;2.22;;
74749;SDS011;63269;53.330;-6.288;2023-08-21T12:58:43;4.43;;;1.65;;
74749;SDS011;63269;53.330;-6.288;2023-08-21T13:01:08;7.00;;;1.70;;
74749;SDS011;63269;53.330;-6.288;2023-08-21T13:03:34;5.03;;;1.50;;
74749;SDS011;63269;53.330;-6.288;2023-08-21T13:06:00;6.78;;;2.45;;
74749;SDS011;63269;53.330;-6.288;2023-08-21T13:08:25;7.30;;;2.00;;
74749;SDS011;63269;53.330;-6.288;2023-08-21T13:10:52;8.50;;;1.90;;
74749;SDS011;63269;53.330;-6.288;2023-08-21T13:13:17;5.18;;;1.70;;
74749;SDS011;63269;53.330;-6.288;2023-08-21T13:15:43;4.25;;;1.55;;
74749;SDS011;63269;53.330;-6.288;2023-08-21T13:18:10;5.05;;;1.73;;
74749;SDS011;63269;53.330;-6.288;2023-08-21T13:20:36;5.50;;;1.80;;
74749;SDS011;63269;53.330;-6.288;2023-08-21T13:23:02;5.55;;;1.65;;
74749;SDS011;63269;53.330;-6.288;2023-08-21T13:25:27;7.40;;;1.83;;
74749;SDS011;63269;53.330;-6.288;2023-08-21T13:27:53;7.78;;;2.15;;
74749;SDS011;63269;53.330;-6.288;2023-08-21T13:30:19;6.40;;;1.70;;
74749;SDS011;63269;53.330;-6.288;2023-08-21T13:32:45;5.82;;;1.90;;
74749;SDS011;63269;53.330;-6.288;2023-08-21T13:35:11;6.25;;;2.55;;
74749;SDS011;63269;53.330;-6.288;2023-08-21T13:37:37;6.82;;;2.03;;
74749;SDS011;63269;53.330;-6.288;2023-08-21T13:40:03;7.63;;;1.90;;
74749;SDS011;63269;53.330;-6.288;2023-08-21T13:42:39;7.78;;;2.17;;
74749;SDS011;63269;53.330;-6.288;2023-08-21T13:45:06;6.43;;;1.48;;
74749;SDS011;63269;53.330;-6.288;2023-08-21T13:47:39;5.30;;;1.92;;
74749;SDS011;63269;53.330;-6.288;2023-08-21T13:50:06;7.10;;;1.92;;
74749;SDS011;63269;53.330;-6.288;2023-08-21T13:52:32;6.25;;;2.00;;
74749;SDS011;63269;53.330;-6.288;2023-08-21T13:54:59;5.95;;;1.65;;
74749;SDS011;63269;53.330;-6.288;2023-08-21T13:57:24;5.05;;;1.90;;
74749;SDS011;63269;53.330;-6.288;2023-08-21T13:59:53;3.33;;;1.63;;
74749;SDS011;63269;53.330;-6.288;2023-08-21T14:02:18;4.68;;;2.20;;
74749;SDS011;63269;53.330;-6.288;2023-08-21T14:04:45;5.60;;;2.13;;
74749;SDS011;63269;53.330;-6.288;2023-08-21T14:07:11;7.32;;;2.13;;
74749;SDS011;63269;53.330;-6.288;2023-08-21T14:09:37;4.72;;;1.83;;
74749;SDS011;63269;53.330;-6.288;2023-08-21T14:12:02;4.63;;;1.83;;
74749;SDS011;63269;53.330;-6.288;2023-08-21T14:14:28;3.55;;;1.83;;
74749;SDS011;63269;53.330;-6.288;2023-08-21T14:16:54;4.63;;;2.08;;
74749;SDS011;63269;53.330;-6.288;2023-08-21T14:19:19;6.45;;;1.60;;
74749;SDS011;63269;53.330;-6.288;2023-08-21T14:21:44;5.45;;;1.70;;
74749;SDS011;63269;53.330;-6.288;2023-08-21T14:24:10;3.33;;;1.42;;
74749;SDS011;63269;53.330;-6.288;2023-08-21T14:26:35;4.45;;;1.70;;
74749;SDS011;63269;53.330;-6.288;2023-08-21T14:29:01;5.63;;;1.67;;
74749;SDS011;63269;53.330;-6.288;2023-08-21T14:31:26;4.97;;;1.60;;
74749;SDS011;63269;53.330;-6.288;2023-08-21T14:33:52;3.20;;;1.70;;
74749;SDS011;63269;53.330;-6.288;2023-08-21T14:36:17;5.25;;;1.63;;
74749;SDS011;63269;53.330;-6.288;2023-08-21T14:38:44;4.22;;;1.70;;
74749;SDS011;63269;53.330;-6.288;2023-08-21T14:41:10;6.07;;;2.40;;
74749;SDS011;63269;53.330;-6.288;2023-08-21T14:43:35;6.47;;;1.75;;